Flight Track Log - Related Links

Times and Time Zones

All times are in EDT time to prevent confusion due to time zone crossing. See the UAL99 flight status page for this flight to view local times or setup timezone preferences in your user account.

Time Position Orientation Groundspeed Altitude Reporting Facility
EDT Latitude Longitude Course Direction KTS MPH feet Rate Location/Type
Sun 10:18:59 AM -16.8927 145.7582 47° Northeast 149 171 1,500  Level Aus ATC (RADAR)
Sun 10:20:04 AM -16.8609 145.7943 17° North 195 224 4,000 2,446 Climbing Aus ATC (RADAR)
Sun 10:21:09 AM -16.7867 145.8174 10° North 277 319 6,800 2,928 Climbing Aus ATC (RADAR)
Sun 10:22:09 AM -16.7066 145.8323 10° North 296 341 10,100 2,215 Climbing Aus ATC (RADAR)
Sun 10:23:19 AM -16.5996 145.8516 10° North 363 418 11,600 1,754 Climbing Aus ATC (RADAR)
Sun 10:24:19 AM -16.4912 145.8708 10° North 400 460 13,900 2,448 Climbing Aus ATC (RADAR)
Sun 10:25:24 AM -16.3695 145.8926 North 411 473 16,700 2,631 Climbing Aus ATC (RADAR)
Sun 10:26:29 AM -16.2449 145.9133 11° North 414 476 19,600 2,215 Climbing Aus ATC (RADAR)
Sun 10:27:34 AM -16.1185 145.9380 10° North 435 501 21,500 1,839 Climbing Aus ATC (RADAR)
Sun 10:28:33 AM -15.9949 145.9602 10° North 452 520 23,400 1,929 Climbing Aus ATC (RADAR)
Sun 10:29:54 AM -15.8257 145.9903 North 462 532 26,000 1,714 Climbing Aus ATC (RADAR)
Sun 10:30:53 AM -15.6955 146.0115 10° North 479 551 27,400 1,395 Climbing Aus ATC (RADAR)
Sun 10:32:03 AM -15.5412 146.0409 10° North 486 559 29,000 1,338 Climbing Aus ATC (RADAR)
Sun 10:33:03 AM -15.4065 146.0651 North 490 564 30,300 1,488 Climbing Aus ATC (RADAR)
Sun 10:34:08 AM -15.2606 146.0882 10° North 479 551 32,100 1,477 Climbing Aus ATC (RADAR)
Sun 10:35:13 AM -15.1162 146.1156 10° North 479 551 33,500 1,385 Climbing Aus ATC (RADAR)
Sun 10:36:18 AM -14.9715 146.1409 10° North 483 556 35,100 1,440 Climbing Aus ATC (RADAR)
Sun 10:37:18 AM -14.8406 146.1637 10° North 473 544 36,500 1,200 Climbing Aus ATC (RADAR)
Sun 10:38:28 AM -14.6880 146.1905 10° North 473 544 37,700 969 Climbing Aus ATC (RADAR)
Sun 10:39:28 AM -14.5574 146.2141 North 473 544 38,600 960 Climbing Aus ATC (RADAR)
Sun 10:40:33 AM -14.4168 146.2380 11° North 466 536 39,700 651 Climbing Aus ATC (RADAR)
Sun 10:41:37 AM -14.2775 146.2647 11° North 469 540 40,000 145 Climbing Aus ATC (RADAR)
Sun 10:42:37 AM -14.1483 146.2897 12° North 466 536 40,000  Level Aus ATC (RADAR)
Sun 10:43:42 AM -14.0092 146.3196 12° North 467 537 40,000  Level Aus ATC (RADAR)
Sun 10:44:52 AM -13.8592 146.3510 11° North 464 534 40,000  Level Aus ATC (RADAR)
Sun 10:45:57 AM -13.7196 146.3798 10° North 467 537 40,000  Level Aus ATC (RADAR)
Sun 10:47:02 AM -13.5795 146.4055 North 465 535 40,000  Level Aus ATC (RADAR)
Sun 10:48:07 AM -13.4389 146.4294 13° North 466 536 40,000  Level Aus ATC (RADAR)
Sun 10:49:07 AM -13.3128 146.4585 10° North 459 528 40,000  Level Aus ATC (RADAR)
Sun 10:50:17 AM -13.1631 146.4861 16° North 461 531 40,000  Level Aus ATC (RADAR)
Sun 10:51:16 AM -13.0374 146.5235 North 468 539 40,000  Level Aus ATC (RADAR)
Sun 10:52:21 AM -12.8980 146.5455 North 460 529 40,000  Level Aus ATC (RADAR)
Sun 10:53:26 AM -12.7556 146.5579 358° North 562 647 40,000  Level Aus ATC (RADAR)
Sun 10:56:51 AM -12.3576 146.6481 358° North 40,000  Level Aus ATC (Calculated)
Sun 11:00:00 AM -11.9583 146.7264 357° North 40,000  Level Aus ATC (Calculated)
Sun 11:01:32 AM -11.7718 146.7255 357° North  Level FlightAware Approximate
Sun 11:02:32 AM -11.6501 146.7249 357° North  Level FlightAware Approximate
Sun 11:03:32 AM -11.5285 146.7243 357° North  Level FlightAware Approximate
Sun 11:04:32 AM -11.4069 146.7237 357° North  Level FlightAware Approximate
Sun 11:05:32 AM -11.2852 146.7231 357° North  Level FlightAware Approximate
Sun 11:06:32 AM -11.1636 146.7224 357° North  Level FlightAware Approximate
Sun 11:07:32 AM -11.0420 146.7218 357° North  Level FlightAware Approximate
Sun 11:08:32 AM -10.9204 146.7213 357° North  Level FlightAware Approximate
Sun 11:09:32 AM -10.7987 146.7207 357° North  Level FlightAware Approximate
Sun 11:09:41 AM -10.6782 146.9760 356° North 40,000  Level Aus ATC (Calculated)
Sun 11:11:32 AM -10.4539 146.9579 356° North  Level FlightAware Approximate
Sun 11:12:32 AM -10.3327 146.9481 356° North  Level FlightAware Approximate
Sun 11:13:32 AM -10.2114 146.9383 356° North  Level FlightAware Approximate
Sun 11:14:32 AM -10.0902 146.9286 356° North  Level FlightAware Approximate
Sun 11:15:32 AM -9.9689 146.9188 356° North  Level FlightAware Approximate
Sun 11:16:32 AM -9.8477 146.9091 356° North  Level FlightAware Approximate
Sun 11:17:32 AM -9.7264 146.8993 356° North  Level FlightAware Approximate
Sun 11:18:32 AM -9.6052 146.8896 356° North  Level FlightAware Approximate
Sun 11:19:32 AM -9.4839 146.8799 356° North  Level FlightAware Approximate
Sun 11:20:32 AM -9.3627 146.8701 356° North  Level FlightAware Approximate
Sun 11:21:32 AM -9.2414 146.8604 356° North  Level FlightAware Approximate
Sun 11:22:32 AM -9.1202 146.8507 356° North  Level FlightAware Approximate
Sun 11:23:32 AM -8.9989 146.8410 356° North  Level FlightAware Approximate
Sun 11:24:32 AM -8.8777 146.8313 356° North  Level FlightAware Approximate
Sun 11:25:32 AM -8.7564 146.8217 356° North  Level FlightAware Approximate
Sun 11:26:32 AM -8.6352 146.8120 356° North  Level FlightAware Approximate
Sun 11:27:32 AM -8.5139 146.8023 356° North  Level FlightAware Approximate
Sun 11:28:32 AM -8.3927 146.7926 356° North  Level FlightAware Approximate
Sun 11:29:32 AM -8.2714 146.7830 356° North  Level FlightAware Approximate
Sun 11:30:32 AM -8.1502 146.7733 356° North  Level FlightAware Approximate
Sun 11:31:32 AM -8.0289 146.7637 356° North  Level FlightAware Approximate
Sun 11:32:32 AM -7.9077 146.7540 356° North  Level FlightAware Approximate
Sun 11:33:32 AM -7.7864 146.7444 356° North  Level FlightAware Approximate
Sun 11:34:32 AM -7.6652 146.7348 356° North  Level FlightAware Approximate
Sun 11:35:32 AM -7.5439 146.7251 356° North  Level FlightAware Approximate
Sun 11:36:32 AM -7.4227 146.7155 356° North  Level FlightAware Approximate
Sun 11:37:32 AM -7.3014 146.7059 356° North  Level FlightAware Approximate
Sun 11:38:32 AM -7.1802 146.6963 356° North  Level FlightAware Approximate
Sun 11:39:32 AM -7.0589 146.6867 356° North  Level FlightAware Approximate
Sun 11:40:32 AM -6.9377 146.6771 356° North  Level FlightAware Approximate
Sun 11:41:32 AM -6.8164 146.6675 356° North  Level FlightAware Approximate
Sun 11:42:32 AM -6.6952 146.6579 356° North  Level FlightAware Approximate
Sun 11:43:32 AM -6.5739 146.6483 356° North  Level FlightAware Approximate
Sun 11:44:32 AM -6.4527 146.6383 356° North  Level FlightAware Approximate
Sun 11:45:32 AM -6.3315 146.6283 356° North  Level FlightAware Approximate
Sun 11:46:32 AM -6.2103 146.6182 356° North  Level FlightAware Approximate
Sun 11:47:32 AM -6.0890 146.6082 356° North  Level FlightAware Approximate
Sun 11:48:32 AM -5.9678 146.5982 356° North  Level FlightAware Approximate
Sun 11:49:32 AM -5.8466 146.5882 356° North  Level FlightAware Approximate
Sun 11:50:32 AM -5.7254 146.5782 356° North  Level FlightAware Approximate
Sun 11:51:32 AM -5.6042 146.5682 356° North  Level FlightAware Approximate
Sun 11:52:32 AM -5.4830 146.5582 356° North  Level FlightAware Approximate
Sun 11:53:32 AM -5.3617 146.5482 356° North  Level FlightAware Approximate
Sun 11:54:32 AM -5.2405 146.5383 356° North  Level FlightAware Approximate
Sun 11:55:32 AM -5.1193 146.5283 356° North  Level FlightAware Approximate
Sun 11:56:32 AM -4.9981 146.5183 356° North  Level FlightAware Approximate
Sun 11:57:32 AM -4.8769 146.5083 356° North  Level FlightAware Approximate
Sun 11:58:32 AM -4.7556 146.4984 356° North  Level FlightAware Approximate
Sun 11:59:32 AM -4.6344 146.4884 356° North  Level FlightAware Approximate
Sun 12:00:32 PM -4.5132 146.4784 356° North  Level FlightAware Approximate
Sun 12:01:32 PM -4.3920 146.4685 356° North  Level FlightAware Approximate
Sun 12:02:32 PM -4.2708 146.4585 356° North  Level FlightAware Approximate
Sun 12:03:32 PM -4.1495 146.4486 356° North  Level FlightAware Approximate
Sun 12:04:32 PM -4.0283 146.4386 356° North  Level FlightAware Approximate
Sun 12:05:32 PM -3.9071 146.4287 356° North  Level FlightAware Approximate
Sun 12:06:32 PM -3.7859 146.4187 356° North  Level FlightAware Approximate
Sun 12:07:32 PM -3.6646 146.4088 356° North  Level FlightAware Approximate
Sun 12:08:32 PM -3.5434 146.3989 356° North  Level FlightAware Approximate
Sun 12:09:32 PM -3.4222 146.3889 356° North  Level FlightAware Approximate
Sun 12:10:32 PM -3.3010 146.3790 356° North  Level FlightAware Approximate
Sun 12:11:32 PM -3.1798 146.3691 356° North  Level FlightAware Approximate
Sun 12:12:32 PM -3.0585 146.3591 356° North  Level FlightAware Approximate
Sun 12:13:32 PM -2.9373 146.3492 356° North  Level FlightAware Approximate
Sun 12:14:32 PM -2.8161 146.3393 356° North  Level FlightAware Approximate
Sun 12:15:32 PM -2.6949 146.3294 356° North  Level FlightAware Approximate
Sun 12:16:32 PM -2.5737 146.3195 356° North  Level FlightAware Approximate
Sun 12:17:32 PM -2.4525 146.3095 356° North  Level FlightAware Approximate
Sun 12:18:32 PM -2.3312 146.2996 356° North  Level FlightAware Approximate
Sun 12:19:32 PM -2.2055 146.2894 356° North  Level FlightAware Approximate
Sun 12:20:32 PM -2.0798 146.2791 356° North  Level FlightAware Approximate
Sun 12:21:32 PM -1.9541 146.2688 357° North  Level FlightAware Approximate
Sun 12:22:32 PM -1.8284 146.2585 357° North  Level FlightAware Approximate
Sun 12:23:32 PM -1.7027 146.2483 357° North  Level FlightAware Approximate
Sun 12:24:32 PM -1.5770 146.2380 357° North  Level FlightAware Approximate
Sun 12:25:32 PM -1.4513 146.2277 357° North  Level FlightAware Approximate
Sun 12:26:32 PM -1.3255 146.2175 357° North  Level FlightAware Approximate
Sun 12:27:32 PM -1.1998 146.2072 357° North  Level FlightAware Approximate
Sun 12:28:32 PM -1.0741 146.1969 357° North  Level FlightAware Approximate
Sun 12:29:32 PM -0.9484 146.1867 358° North  Level FlightAware Approximate
Sun 12:30:32 PM -0.8227 146.1764 358° North  Level FlightAware Approximate
Sun 12:31:32 PM -0.6970 146.1661 359° North  Level FlightAware Approximate
Sun 12:32:32 PM -0.5713 146.1559 359° North  Level FlightAware Approximate
Sun 12:33:32 PM -0.4456 146.1456 North  Level FlightAware Approximate
Sun 12:34:32 PM -0.3199 146.1353 North  Level FlightAware Approximate
Sun 12:35:32 PM -0.1942 146.1251 North  Level FlightAware Approximate
Sun 12:36:32 PM -0.0684 146.1148 27° Northeast  Level FlightAware Approximate
Sun 12:37:32 PM 0.0550 146.1286 159° South  Level FlightAware Approximate
Sun 12:37:47 PM 0.0000 146.1500 355° North 448 516 40,000  Level Oakland Oceanic (ODAPS)
Sun 01:15:35 PM 5.0000 145.7000 355° North 447 514 40,000  Level Oakland Oceanic (ODAPS)
Sun 01:51:06 PM 9.5667 145.2833 353° North 450 518 40,000  Level Guam Center
Sun 01:55:07 PM 10.0667 145.2167 353° North 450 518 40,000  Level Guam Center
Sun 01:57:07 PM 10.3167 145.1833 344° North 450 518 40,000  Level Guam Center
Sun 01:58:08 PM 10.4333 145.1500 353° North 450 518 40,000  Level Guam Center
Sun 01:59:08 PM 10.5667 145.1333 352° North 440 506 40,000  Level Guam Center
Sun 02:00:08 PM 10.6833 145.1167 352° North 440 506 40,000  Level Guam Center
Sun 02:03:09 PM 11.0500 145.0667 352° North 440 506 40,000 -149 Level Guam Center
Sun 02:04:10 PM 11.1667 145.0500 352° North 440 506 39,400 -744 Descending Guam Center
Sun 02:05:10 PM 11.2833 145.0333 346° North 440 506 38,500 -893 Descending Guam Center
Sun 02:06:11 PM 11.4167 145.0000 352° North 450 518 37,600 -950 Descending Guam Center
Sun 02:07:10 PM 11.5333 144.9833 353° North 450 518 36,600 -1,200 Descending Guam Center
Sun 02:08:11 PM 11.6667 144.9667 353° North 470 541 35,200 -1,339 Descending Guam Center
Sun 02:09:11 PM 11.8000 144.9500 352° North 460 529 33,900 -1,438 Descending Guam Center
Sun 02:10:12 PM 11.9167 144.9333 353° North 470 541 32,300 -1,686 Descending Guam Center
Sun 02:11:12 PM 12.0500 144.9167 353° North 480 552 30,500 -2,300 Descending Guam Center
Sun 02:12:12 PM 12.1833 144.9000 354° North 490 564 27,700 -3,620 Descending Guam Center
Sun 02:13:13 PM 12.3333 144.8833 353° North 500 575 23,200 -3,669 Descending Guam Center
Sun 02:14:13 PM 12.4667 144.8667 352° North 480 552 20,300 -2,700 Descending Guam Center
Sun 02:15:13 PM 12.5833 144.8500 352° North 440 506 17,800 -2,777 Descending Guam Center
Sun 02:16:14 PM 12.7000 144.8333 360° North 420 483 14,700 -2,777 Descending Guam Center
Sun 02:17:14 PM 12.8333 144.8333 351° North 390 449 12,200 -2,500 Descending Guam Center
Sun 02:18:14 PM 12.9333 144.8167 360° North 370 426 9,700 -2,050 Descending Guam Center
Sun 02:19:14 PM 13.0167 144.8167 352° North 360 414 8,100 -2,479 Descending Guam Center
Sun 02:20:15 PM 13.1333 144.8000 360° North 350 403 4,700 -2,479 Descending Guam Center
Sun 02:21:15 PM 13.2333 144.8000 349° North 320 368 3,100 -942 Descending Guam Center
Sun 02:22:16 PM 13.3167 144.7833 349° North 270 311 2,800 -295 Descending Guam Center

Login

Don't have an account? Register now (free) for customized features, flight alerts, and more!